createdAt,value
2019-04-20T00:01:18.656Z,2.53
2019-04-20T00:03:49.029Z,2.43
2019-04-20T00:06:19.540Z,2.37
2019-04-20T00:08:58.120Z,2.37
2019-04-20T00:11:28.381Z,2.27
2019-04-20T00:14:03.123Z,2.40
2019-04-20T00:16:25.175Z,2.40
2019-04-20T00:18:59.161Z,2.50
2019-04-20T00:22:00.276Z,2.33
2019-04-20T00:24:35.401Z,1.90
2019-04-20T00:27:29.821Z,2.50
2019-04-20T00:29:49.593Z,2.30
2019-04-20T00:32:18.544Z,2.40
2019-04-20T00:34:40.716Z,2.60
2019-04-20T00:37:10.874Z,2.47
2019-04-20T00:39:41.013Z,2.60
2019-04-20T00:42:14.226Z,2.53
2019-04-20T00:44:45.770Z,2.37
2019-04-20T00:47:29.512Z,2.50
2019-04-20T00:49:58.047Z,2.60
2019-04-20T00:52:31.140Z,2.20
2019-04-20T00:54:49.733Z,2.67
2019-04-20T00:57:30.540Z,2.57
2019-04-20T01:00:12.537Z,3.10
2019-04-20T01:02:36.183Z,2.70
2019-04-20T01:05:11.022Z,2.17
2019-04-20T01:07:46.831Z,3.07
2019-04-20T01:10:15.096Z,2.60
2019-04-20T01:12:45.831Z,2.20
2019-04-20T01:15:25.583Z,2.37
2019-04-20T01:17:48.558Z,2.60
2019-04-20T01:20:18.561Z,2.37
2019-04-20T01:22:54.633Z,2.43
2019-04-20T01:25:28.343Z,2.03
2019-04-20T01:28:10.297Z,2.43
2019-04-20T01:30:31.993Z,2.60
2019-04-20T01:33:14.886Z,1.97
2019-04-20T01:35:45.004Z,2.27
2019-04-20T01:38:17.836Z,2.40
2019-04-20T01:40:31.668Z,2.23
2019-04-20T01:43:01.762Z,2.20
2019-04-20T01:45:36.288Z,2.53
2019-04-20T01:48:05.198Z,2.40
2019-04-20T01:50:38.285Z,2.40
2019-04-20T01:53:18.966Z,2.57
2019-04-20T01:55:53.355Z,2.23
2019-04-20T01:58:39.790Z,2.57
2019-04-20T02:01:19.142Z,2.20
2019-04-20T02:03:53.532Z,2.70
2019-04-20T02:06:25.100Z,2.77
2019-04-20T02:09:01.575Z,2.60
2019-04-20T02:11:33.951Z,2.30
2019-04-20T02:14:02.424Z,2.27
2019-04-20T02:16:37.272Z,2.70
2019-04-20T02:19:22.090Z,2.10
2019-04-20T02:21:46.732Z,2.30
2019-04-20T02:24:08.042Z,2.40
2019-04-20T02:26:36.803Z,2.57
2019-04-20T02:29:31.961Z,2.60
2019-04-20T02:32:17.602Z,2.33
2019-04-20T02:35:07.610Z,2.40
2019-04-20T02:38:18.305Z,3.07
2019-04-20T02:40:46.596Z,2.50
2019-04-20T02:43:15.119Z,2.43
2019-04-20T02:48:14.105Z,2.50
2019-04-20T02:50:50.201Z,3.00
2019-04-20T02:53:20.324Z,2.70
2019-04-20T02:55:55.556Z,2.60
2019-04-20T02:58:29.128Z,2.57
2019-04-20T03:00:44.672Z,2.83
2019-04-20T03:03:07.796Z,2.83
2019-04-20T03:05:38.219Z,2.53
2019-04-20T03:08:19.128Z,2.90
2019-04-20T03:11:05.859Z,3.03
2019-04-20T03:13:25.356Z,2.80
2019-04-20T03:15:56.471Z,2.60
2019-04-20T03:18:25.277Z,3.20
2019-04-20T03:21:04.485Z,3.00
2019-04-20T03:23:36.814Z,2.57
2019-04-20T03:26:11.019Z,3.00
2019-04-20T03:29:01.473Z,2.97
2019-04-20T03:32:04.376Z,2.87
2019-04-20T03:34:38.466Z,3.10
2019-04-20T03:36:57.181Z,3.20
2019-04-20T03:39:16.793Z,3.03
2019-04-20T03:41:35.218Z,3.13
2019-04-20T03:44:04.177Z,2.77
2019-04-20T03:46:37.560Z,2.90
2019-04-20T03:49:21.518Z,3.43
2019-04-20T03:51:54.601Z,3.40
2019-04-20T03:54:38.671Z,3.37
2019-04-20T03:57:27.660Z,3.13
2019-04-20T04:00:06.289Z,3.07
2019-04-20T04:03:12.487Z,3.20
2019-04-20T04:05:32.426Z,3.50
2019-04-20T04:08:00.962Z,3.33
2019-04-20T04:10:31.667Z,3.57
2019-04-20T04:13:16.660Z,3.70
2019-04-20T04:15:51.971Z,4.10
2019-04-20T04:18:28.109Z,4.27
2019-04-20T04:20:59.416Z,3.50
2019-04-20T04:23:40.877Z,3.90
2019-04-20T04:26:12.384Z,4.10
2019-04-20T04:28:46.332Z,3.87
2019-04-20T04:31:16.493Z,4.40
2019-04-20T04:34:02.559Z,4.17
2019-04-20T04:36:19.377Z,4.83
2019-04-20T04:41:26.713Z,4.10
2019-04-20T04:43:54.200Z,4.37
2019-04-20T04:46:10.238Z,4.53
2019-04-20T04:48:43.950Z,3.93
2019-04-20T04:51:19.743Z,4.80
2019-04-20T04:53:54.182Z,4.00
2019-04-20T04:56:19.749Z,3.80
2019-04-20T04:58:47.399Z,4.03
2019-04-20T05:01:22.351Z,4.60
2019-04-20T05:04:14.788Z,4.13
2019-04-20T05:06:33.245Z,4.07
2019-04-20T05:08:58.441Z,4.00
2019-04-20T05:11:25.892Z,4.17
2019-04-20T05:14:02.251Z,4.23
2019-04-20T05:16:43.452Z,4.17
2019-04-20T05:19:19.331Z,3.60
2019-04-20T05:22:01.265Z,4.17
2019-04-20T05:24:48.198Z,4.23
2019-04-20T05:27:40.481Z,3.80
2019-04-20T05:29:52.889Z,3.97
2019-04-20T05:32:32.777Z,4.00
2019-04-20T05:35:14.642Z,3.97
2019-04-20T05:37:48.763Z,4.20
2019-04-20T05:40:25.213Z,3.70
2019-04-20T05:42:59.475Z,4.00
2019-04-20T05:45:25.221Z,4.03
2019-04-20T05:47:59.507Z,3.77
2019-04-20T05:50:31.210Z,3.60
2019-04-20T05:53:10.061Z,3.83
2019-04-20T05:55:33.029Z,4.10
2019-04-20T05:58:08.845Z,4.13
2019-04-20T06:00:45.038Z,3.67
2019-04-20T06:03:10.799Z,4.00
2019-04-20T06:05:53.698Z,4.10
2019-04-20T06:08:26.435Z,3.90
2019-04-20T06:10:52.232Z,4.03
2019-04-20T06:13:37.935Z,3.80
2019-04-20T06:16:29.871Z,3.90
2019-04-20T06:19:15.168Z,3.70
2019-04-20T06:21:54.332Z,4.33
2019-04-20T06:24:38.011Z,4.00
2019-04-20T06:27:01.010Z,3.63
2019-04-20T06:29:22.157Z,4.00
2019-04-20T06:32:07.127Z,4.03
2019-04-20T06:34:41.599Z,4.17
2019-04-20T06:37:02.836Z,3.83
2019-04-20T06:39:41.267Z,3.70
2019-04-20T06:45:02.230Z,3.93
2019-04-20T06:47:21.151Z,3.87
2019-04-20T06:49:38.191Z,3.20
2019-04-20T06:55:15.723Z,3.70
2019-04-20T06:57:49.902Z,3.47
2019-04-20T07:00:37.917Z,3.17
2019-04-20T07:03:04.733Z,2.90
2019-04-20T07:08:00.653Z,3.13
2019-04-20T07:10:35.910Z,2.80
2019-04-20T07:12:55.342Z,2.80
2019-04-20T07:15:28.512Z,2.43
2019-04-20T07:18:13.818Z,3.87
2019-04-20T07:21:03.783Z,3.17
2019-04-20T07:23:31.257Z,3.20
2019-04-20T07:26:04.866Z,3.23
2019-04-20T07:28:35.358Z,3.33
2019-04-20T07:31:01.844Z,3.60
2019-04-20T07:33:34.907Z,2.97
2019-04-20T07:36:05.937Z,2.53
2019-04-20T07:38:40.551Z,2.60
2019-04-20T07:41:08.228Z,2.70
2019-04-20T07:43:54.037Z,2.27
2019-04-20T07:46:20.795Z,2.77
2019-04-20T07:48:48.201Z,2.70
2019-04-20T07:51:06.892Z,2.40
2019-04-20T07:53:43.089Z,2.47
2019-04-20T07:56:25.947Z,2.37
2019-04-20T07:58:41.211Z,2.67
2019-04-20T08:01:38.855Z,2.60
2019-04-20T08:04:17.125Z,2.80
2019-04-20T08:06:42.097Z,2.50
2019-04-20T08:09:19.605Z,2.57
2019-04-20T08:12:03.008Z,3.10
2019-04-20T08:14:31.891Z,2.60
2019-04-20T08:17:14.070Z,2.57
2019-04-20T08:19:28.664Z,2.70
2019-04-20T08:22:07.684Z,2.10
2019-04-20T08:24:32.793Z,2.80
2019-04-20T08:27:00.006Z,2.50
2019-04-20T08:29:45.196Z,2.00
2019-04-20T08:32:32.522Z,2.07
2019-04-20T08:35:14.333Z,2.30
2019-04-20T08:37:45.939Z,2.33
2019-04-20T08:40:13.237Z,2.87
2019-04-20T08:42:58.577Z,2.30
2019-04-20T08:45:18.008Z,2.27
2019-04-20T08:47:51.794Z,2.13
2019-04-20T08:53:08.909Z,2.30
2019-04-20T08:55:19.817Z,2.37
2019-04-20T08:57:35.561Z,2.80
2019-04-20T09:00:07.659Z,2.67
2019-04-20T09:02:43.374Z,2.60
2019-04-20T09:05:28.137Z,2.40
2019-04-20T09:07:55.363Z,2.90
2019-04-20T09:10:41.015Z,2.30
2019-04-20T09:13:02.209Z,2.95
2019-04-20T09:15:21.116Z,2.27
2019-04-20T09:18:01.928Z,2.50
2019-04-20T09:20:42.385Z,2.37
2019-04-20T09:23:23.931Z,2.23
2019-04-20T09:26:12.937Z,2.20
2019-04-20T09:28:37.347Z,2.37
2019-04-20T09:31:22.639Z,2.13
2019-04-20T09:34:03.932Z,2.20
2019-04-20T09:36:32.560Z,2.43
2019-04-20T09:39:08.643Z,2.47
2019-04-20T09:41:54.640Z,1.80
2019-04-20T09:44:06.992Z,2.10
2019-04-20T09:46:44.164Z,2.40
2019-04-20T09:49:20.077Z,2.10
2019-04-20T09:51:59.750Z,2.27
2019-04-20T09:54:34.309Z,2.00
2019-04-20T09:57:03.577Z,2.00
2019-04-20T09:59:33.493Z,1.90
2019-04-20T10:01:59.102Z,2.00
2019-04-20T10:04:19.630Z,2.13
2019-04-20T10:06:49.746Z,2.30
2019-04-20T10:09:26.891Z,2.17
2019-04-20T10:11:51.619Z,1.97
2019-04-20T10:14:22.625Z,1.70
2019-04-20T10:16:53.808Z,2.20
2019-04-20T10:19:30.165Z,1.90
2019-04-20T10:21:56.983Z,2.30
2019-04-20T10:24:28.437Z,2.13
2019-04-20T10:26:58.885Z,2.30
2019-04-20T10:29:28.941Z,2.20
2019-04-20T10:32:02.634Z,1.93
2019-04-20T10:34:30.720Z,2.30
2019-04-20T10:37:13.491Z,2.27
2019-04-20T10:39:44.670Z,2.20
2019-04-20T10:42:16.229Z,1.80
2019-04-20T10:44:48.052Z,2.27
2019-04-20T10:47:18.976Z,1.73
2019-04-20T10:49:49.324Z,2.20
2019-04-20T10:52:20.010Z,2.10
2019-04-20T10:54:50.401Z,2.20
2019-04-20T10:57:21.615Z,2.27
2019-04-20T10:59:52.048Z,2.37
2019-04-20T11:02:23.547Z,2.37
2019-04-20T11:04:54.799Z,2.10
2019-04-20T11:07:26.369Z,2.10
2019-04-20T11:10:10.384Z,2.47
2019-04-20T11:12:28.507Z,2.27
2019-04-20T11:14:58.724Z,2.50
2019-04-20T11:17:30.576Z,2.40
2019-04-20T11:20:01.372Z,2.23
2019-04-20T11:22:32.564Z,2.17
2019-04-20T11:25:04.179Z,2.40
2019-04-20T11:27:34.380Z,2.50
2019-04-20T11:30:04.954Z,2.43
2019-04-20T11:32:35.995Z,2.50
2019-04-20T11:35:09.112Z,2.60
2019-04-20T11:37:39.146Z,2.50
2019-04-20T11:40:10.793Z,2.43
2019-04-20T11:42:41.620Z,2.10
2019-04-20T11:45:12.944Z,2.13
2019-04-20T11:47:43.412Z,2.33
2019-04-20T11:50:13.785Z,2.70
2019-04-20T11:52:48.111Z,2.37
2019-04-20T11:55:16.114Z,2.60
2019-04-20T11:57:47.203Z,2.20
2019-04-20T12:00:23.974Z,2.40
2019-04-20T12:03:21.828Z,2.20
2019-04-20T12:05:48.196Z,2.30
2019-04-20T12:08:16.569Z,2.83
2019-04-20T12:10:51.353Z,2.43
2019-04-20T12:13:20.455Z,2.50
2019-04-20T12:15:51.872Z,2.43
2019-04-20T12:18:23.365Z,2.60
2019-04-20T12:20:54.844Z,2.60
2019-04-20T12:23:26.413Z,2.55
2019-04-20T12:25:56.902Z,2.63
2019-04-20T12:28:27.836Z,2.80
2019-04-20T12:31:05.283Z,2.37
2019-04-20T12:33:32.619Z,2.80
2019-04-20T12:36:06.010Z,2.53
2019-04-20T12:38:37.386Z,2.47
2019-04-20T12:41:10.996Z,2.50
2019-04-20T12:43:41.517Z,2.77
2019-04-20T12:46:16.250Z,1.93
2019-04-20T12:48:45.266Z,2.30
2019-04-20T12:51:17.416Z,2.58
2019-04-20T12:53:48.745Z,2.77
2019-04-20T12:56:20.316Z,3.35
2019-04-20T12:58:51.640Z,2.72
2019-04-20T13:01:22.880Z,2.42
2019-04-20T13:03:53.704Z,2.70
2019-04-20T13:06:23.951Z,2.62
2019-04-20T13:08:58.947Z,2.97
2019-04-20T13:11:50.765Z,2.90
2019-04-20T13:14:48.210Z,2.40
2019-04-20T13:17:19.918Z,2.58
2019-04-20T13:19:51.274Z,2.80
2019-04-20T13:22:21.424Z,2.70
2019-04-20T13:24:52.807Z,2.37
2019-04-20T13:27:23.027Z,2.35
2019-04-20T13:29:54.656Z,2.50
2019-04-20T13:32:25.712Z,2.65
2019-04-20T13:34:56.283Z,2.70
2019-04-20T13:37:26.463Z,2.33
2019-04-20T13:39:56.721Z,2.70
2019-04-20T13:42:29.784Z,3.02
2019-04-20T13:44:59.097Z,2.47
2019-04-20T13:47:30.480Z,2.77
2019-04-20T13:50:01.147Z,3.23
2019-04-20T13:52:31.405Z,2.60
2019-04-20T13:55:02.402Z,2.55
2019-04-20T13:57:40.001Z,2.50
2019-04-20T14:00:35.025Z,3.33
2019-04-20T14:03:08.898Z,2.50
2019-04-20T14:05:40.494Z,2.70
2019-04-20T14:08:13.487Z,3.00
2019-04-20T14:10:45.109Z,2.50
2019-04-20T14:13:20.974Z,2.45
2019-04-20T14:15:51.277Z,3.10
2019-04-20T14:18:22.628Z,3.15
2019-04-20T14:20:54.113Z,2.92
2019-04-20T14:23:25.222Z,2.72
2019-04-20T14:25:56.592Z,2.40
2019-04-20T14:28:27.091Z,2.62
2019-04-20T14:30:58.189Z,3.30
2019-04-20T14:33:28.644Z,2.98
2019-04-20T14:35:59.088Z,2.80
2019-04-20T14:38:30.591Z,2.87
2019-04-20T14:41:02.170Z,3.00
2019-04-20T14:43:33.556Z,2.90
2019-04-20T14:46:05.043Z,2.22
2019-04-20T14:48:36.535Z,2.50
2019-04-20T14:51:07.703Z,2.60
2019-04-20T14:53:38.061Z,2.72
2019-04-20T14:56:09.461Z,2.62
2019-04-20T14:58:49.545Z,2.02
2019-04-20T15:01:38.726Z,2.87
2019-04-20T15:04:14.575Z,2.33
2019-04-20T15:06:40.567Z,2.67
2019-04-20T15:09:10.905Z,2.50
2019-04-20T15:11:42.989Z,2.30
2019-04-20T15:14:12.750Z,2.52
2019-04-20T15:16:42.812Z,2.98
2019-04-20T15:19:31.662Z,2.67
2019-04-20T15:22:03.538Z,2.62
2019-04-20T15:24:33.647Z,2.42
2019-04-20T15:27:04.761Z,2.35
2019-04-20T15:29:36.072Z,2.40
2019-04-20T15:32:06.212Z,2.58
2019-04-20T15:34:37.177Z,2.45
2019-04-20T15:37:07.905Z,2.20
2019-04-20T15:39:38.979Z,2.30
2019-04-20T15:42:09.640Z,2.12
2019-04-20T15:44:39.823Z,2.60
2019-04-20T15:47:11.174Z,1.90
2019-04-20T15:49:42.037Z,2.47
2019-04-20T15:52:19.253Z,2.42
2019-04-20T15:54:45.429Z,2.42
2019-04-20T15:57:21.306Z,2.27
2019-04-20T15:59:48.618Z,2.60
2019-04-20T16:02:29.464Z,2.40
2019-04-20T16:05:16.479Z,2.33
2019-04-20T16:07:52.434Z,2.55
2019-04-20T16:10:19.300Z,3.12
2019-04-20T16:13:02.023Z,2.70
2019-04-20T16:15:22.060Z,2.50
2019-04-20T16:17:53.255Z,2.40
2019-04-20T16:20:25.502Z,2.10
2019-04-20T16:22:56.495Z,2.62
2019-04-20T16:25:35.490Z,2.72
2019-04-20T16:28:05.809Z,2.60
2019-04-20T16:30:36.021Z,2.92
2019-04-20T16:33:06.331Z,3.05
2019-04-20T16:35:36.495Z,2.55
2019-04-20T16:38:06.851Z,3.17
2019-04-20T16:40:37.778Z,3.45
2019-04-20T16:43:18.032Z,3.50
2019-04-20T16:45:39.705Z,4.37
2019-04-20T16:48:10.492Z,4.25
2019-04-20T16:50:40.823Z,3.67
2019-04-20T16:53:10.973Z,4.08
2019-04-20T16:55:41.163Z,3.40
2019-04-20T16:58:11.293Z,4.87
2019-04-20T17:00:43.188Z,6.65
2019-04-20T17:03:13.323Z,4.83
2019-04-20T17:05:43.436Z,4.60
2019-04-20T17:08:13.490Z,4.67
2019-04-20T17:10:44.531Z,5.25
2019-04-20T17:13:16.715Z,5.17
2019-04-20T17:15:47.865Z,5.20
2019-04-20T17:18:19.243Z,5.78
2019-04-20T17:20:50.594Z,5.10
2019-04-20T17:23:21.326Z,4.42
2019-04-20T17:25:52.307Z,4.10
2019-04-20T17:28:55.014Z,4.45
2019-04-20T17:31:45.146Z,4.70
2019-04-20T17:34:36.550Z,4.17
2019-04-20T17:36:50.509Z,4.50
2019-04-20T17:39:33.620Z,4.20
2019-04-20T17:42:07.406Z,4.25
2019-04-20T17:44:37.225Z,3.50
2019-04-20T17:47:13.621Z,4.65
2019-04-20T17:49:41.377Z,4.37
2019-04-20T17:52:25.168Z,4.87
2019-04-20T17:54:39.667Z,4.03
2019-04-20T17:57:11.077Z,4.50
2019-04-20T17:59:52.151Z,3.95
2019-04-20T18:02:49.175Z,4.05
2019-04-20T18:05:39.290Z,4.00
2019-04-20T18:08:19.320Z,3.90
2019-04-20T18:10:37.922Z,4.60
2019-04-20T18:12:56.992Z,4.78
2019-04-20T18:15:42.451Z,4.20
2019-04-20T18:18:32.196Z,3.85
2019-04-20T18:20:52.919Z,4.12
2019-04-20T18:23:28.128Z,3.92
2019-04-20T18:26:17.120Z,4.33
2019-04-20T18:28:54.395Z,4.10
2019-04-20T18:31:17.606Z,4.65
2019-04-20T18:33:48.579Z,4.25
2019-04-20T18:36:28.435Z,3.87
2019-04-20T18:38:57.439Z,3.83
2019-04-20T18:41:30.820Z,4.62
2019-04-20T18:43:58.608Z,4.70
2019-04-20T18:46:52.683Z,4.50
2019-04-20T18:49:14.751Z,4.83
2019-04-20T18:51:29.967Z,4.13
2019-04-20T18:54:05.588Z,5.10
2019-04-20T18:56:36.584Z,5.60
2019-04-20T18:59:05.098Z,4.58
2019-04-20T19:01:39.574Z,4.83
2019-04-20T19:04:07.854Z,4.37
2019-04-20T19:06:38.202Z,4.70
2019-04-20T19:09:09.240Z,5.00
2019-04-20T19:11:43.830Z,5.25
2019-04-20T19:14:49.363Z,5.03
2019-04-20T19:17:57.013Z,5.28
2019-04-20T19:20:41.055Z,5.57
2019-04-20T19:23:11.493Z,5.77
2019-04-20T19:25:43.791Z,5.83
2019-04-20T19:28:14.463Z,6.07
2019-04-20T19:31:00.238Z,6.22
2019-04-20T19:33:31.195Z,6.33
2019-04-20T19:35:56.087Z,7.13
2019-04-20T19:38:24.548Z,7.43
2019-04-20T19:41:00.140Z,8.23
2019-04-20T19:43:32.991Z,6.67
2019-04-20T19:46:35.391Z,6.67
2019-04-20T19:48:39.407Z,7.13
2019-04-20T19:51:26.940Z,7.07
2019-04-20T19:53:54.480Z,7.87
2019-04-20T19:56:16.961Z,7.13
2019-04-20T19:58:52.947Z,8.03
2019-04-20T20:01:07.303Z,9.03
2019-04-20T20:03:37.690Z,9.25
2019-04-20T20:06:11.045Z,8.30
2019-04-20T20:08:40.481Z,9.13
2019-04-20T20:11:21.720Z,8.07
2019-04-20T20:13:49.560Z,8.07
2019-04-20T20:16:26.352Z,8.00
2019-04-20T20:18:59.908Z,8.17
2019-04-20T20:21:27.062Z,8.83
2019-04-20T20:23:50.378Z,7.80
2019-04-20T20:26:28.992Z,8.13
2019-04-20T20:29:09.670Z,8.00
2019-04-20T20:31:48.582Z,9.33
2019-04-20T20:34:15.744Z,8.53
2019-04-20T20:36:43.579Z,7.70
2019-04-20T20:39:15.941Z,7.70
2019-04-20T20:41:53.159Z,8.17
2019-04-20T20:44:25.986Z,7.47
2019-04-20T20:46:57.379Z,7.50
2019-04-20T20:49:35.881Z,8.63
2019-04-20T20:52:08.154Z,7.97
2019-04-20T20:54:34.667Z,7.83
2019-04-20T20:56:59.687Z,8.37
2019-04-20T20:59:34.787Z,8.30
2019-04-20T21:02:04.842Z,8.97
2019-04-20T21:04:26.287Z,8.80
2019-04-20T21:06:58.318Z,9.80
2019-04-20T21:09:29.324Z,9.97
2019-04-20T21:12:04.836Z,8.27
2019-04-20T21:14:34.824Z,8.33
2019-04-20T21:17:12.297Z,8.17
2019-04-20T21:19:56.244Z,7.93
2019-04-20T21:22:13.383Z,9.07
2019-04-20T21:24:41.965Z,7.80
2019-04-20T21:27:16.510Z,8.83
2019-04-20T21:29:50.792Z,8.50
2019-04-20T21:32:18.045Z,9.63
2019-04-20T21:34:51.868Z,9.87
2019-04-20T21:37:23.040Z,8.73
2019-04-20T21:39:56.138Z,9.43
2019-04-20T21:42:28.231Z,9.70
2019-04-20T21:45:05.719Z,9.83
2019-04-20T21:47:33.826Z,8.80
2019-04-20T21:50:17.024Z,9.00
2019-04-20T21:52:38.749Z,9.20
2019-04-20T21:55:04.105Z,9.20
2019-04-20T21:57:40.714Z,8.27
2019-04-20T22:00:21.569Z,8.20
2019-04-20T22:02:48.039Z,9.17
2019-04-20T22:05:13.563Z,8.43
2019-04-20T22:07:44.238Z,8.43
2019-04-20T22:10:20.192Z,8.57
2019-04-20T22:12:52.671Z,8.90
2019-04-20T22:15:26.040Z,9.20
2019-04-20T22:17:50.677Z,8.73
2019-04-20T22:20:32.541Z,8.50
2019-04-20T22:23:09.766Z,8.27
2019-04-20T22:25:42.559Z,7.57
2019-04-20T22:27:58.993Z,7.87
2019-04-20T22:30:28.219Z,7.70
2019-04-20T22:33:04.013Z,7.27
2019-04-20T22:35:36.031Z,8.20
2019-04-20T22:38:17.528Z,7.23
2019-04-20T22:40:47.199Z,7.20
2019-04-20T22:43:24.010Z,7.83
2019-04-20T22:45:53.436Z,8.50
2019-04-20T22:48:21.055Z,8.00
2019-04-20T22:51:11.190Z,7.23
2019-04-20T22:53:36.442Z,8.30
2019-04-20T22:56:15.040Z,9.27
2019-04-20T22:58:40.540Z,9.90
2019-04-20T23:01:04.272Z,9.57
2019-04-20T23:03:30.657Z,8.20
2019-04-20T23:06:00.765Z,8.07
2019-04-20T23:08:30.826Z,8.47
2019-04-20T23:11:04.650Z,8.17
2019-04-20T23:13:39.180Z,8.33
2019-04-20T23:16:07.460Z,7.90
2019-04-20T23:18:38.234Z,8.10
2019-04-20T23:21:12.292Z,7.70
2019-04-20T23:23:41.503Z,8.77
2019-04-20T23:26:12.663Z,10.27
2019-04-20T23:28:48.273Z,8.97
2019-04-20T23:31:19.718Z,8.50
2019-04-20T23:33:47.771Z,8.23
2019-04-20T23:36:20.212Z,7.73
2019-04-20T23:38:54.170Z,8.70
2019-04-20T23:41:21.897Z,8.37
2019-04-20T23:44:12.721Z,8.40
2019-04-20T23:47:08.625Z,8.50
2019-04-20T23:49:54.149Z,8.93
2019-04-20T23:52:33.786Z,8.77
2019-04-20T23:54:50.511Z,10.00
2019-04-20T23:57:13.561Z,8.43
2019-04-20T23:59:46.279Z,8.60
